createdAt,value
2022-09-23T00:00:27.922Z,9.2
2022-09-23T00:01:28.191Z,9.2
2022-09-23T00:02:28.482Z,9.2
2022-09-23T00:03:28.688Z,9.2
2022-09-23T00:04:28.809Z,9.2
2022-09-23T00:05:28.936Z,9.2
2022-09-23T00:06:29.061Z,9.1
2022-09-23T00:07:29.185Z,9.1
2022-09-23T00:08:29.317Z,9.1
2022-09-23T00:09:29.448Z,9.1
2022-09-23T00:10:29.575Z,9.1
2022-09-23T00:11:29.697Z,9.1
2022-09-23T00:12:29.825Z,9.1
2022-09-23T00:13:29.955Z,9.1
2022-09-23T00:14:30.082Z,9.1
2022-09-23T00:15:30.201Z,9.1
2022-09-23T00:16:30.465Z,9
2022-09-23T00:17:30.672Z,9
2022-09-23T00:18:30.789Z,9
2022-09-23T00:19:30.911Z,9
2022-09-23T00:20:31.044Z,9
2022-09-23T00:21:31.166Z,9
2022-09-23T00:22:31.290Z,9
2022-09-23T00:23:31.416Z,9
2022-09-23T00:24:31.545Z,9
2022-09-23T00:25:31.666Z,9
2022-09-23T00:26:31.789Z,8.89
2022-09-23T00:27:31.913Z,8.89
2022-09-23T00:28:32.040Z,8.89
2022-09-23T00:29:32.179Z,8.89
2022-09-23T00:30:32.437Z,8.89
2022-09-23T00:31:32.702Z,8.89
2022-09-23T00:32:32.829Z,8.89
2022-09-23T00:33:32.961Z,8.89
2022-09-23T00:34:33.100Z,8.89
2022-09-23T00:35:33.229Z,8.89
2022-09-23T00:36:33.359Z,8.8
2022-09-23T00:37:33.488Z,8.8
2022-09-23T00:38:33.617Z,8.8
2022-09-23T00:39:33.740Z,8.8
2022-09-23T00:40:33.982Z,8.8
2022-09-23T00:41:34.206Z,8.8
2022-09-23T00:42:34.329Z,8.8
2022-09-23T00:43:34.459Z,8.8
2022-09-23T00:44:34.583Z,8.8
2022-09-23T00:45:34.718Z,8.8
2022-09-23T00:46:35.002Z,8.8
2022-09-23T00:47:35.338Z,8.8
2022-09-23T00:48:35.467Z,8.8
2022-09-23T00:49:35.590Z,8.8
2022-09-23T00:50:35.713Z,8.8
2022-09-23T00:51:35.842Z,8.8
2022-09-23T00:52:35.968Z,8.8
2022-09-23T00:53:36.091Z,8.8
2022-09-23T00:54:36.222Z,8.8
2022-09-23T00:55:36.356Z,8.8
2022-09-23T00:56:36.484Z,8.7
2022-09-23T00:57:36.614Z,8.7
2022-09-23T00:58:36.741Z,8.7
2022-09-23T00:59:36.873Z,8.7
2022-09-23T01:00:37.009Z,8.7
2022-09-23T01:01:37.213Z,8.7
2022-09-23T01:02:37.806Z,8.7
2022-09-23T01:03:38.078Z,8.7
2022-09-23T01:04:38.207Z,8.7
2022-09-23T01:05:38.335Z,8.7
2022-09-23T01:06:38.455Z,8.6
2022-09-23T01:07:38.584Z,8.6
2022-09-23T01:08:38.717Z,8.6
2022-09-23T01:09:38.841Z,8.6
2022-09-23T01:10:38.962Z,8.6
2022-09-23T01:11:39.094Z,8.6
2022-09-23T01:12:39.219Z,8.6
2022-09-23T01:13:39.341Z,8.6
2022-09-23T01:14:39.462Z,8.6
2022-09-23T01:15:39.588Z,8.6
2022-09-23T01:16:39.929Z,8.5
2022-09-23T01:17:40.178Z,8.5
2022-09-23T01:18:40.305Z,8.5
2022-09-23T01:19:40.428Z,8.5
2022-09-23T01:20:40.551Z,8.5
2022-09-23T01:21:40.677Z,8.5
2022-09-23T01:22:40.798Z,8.5
2022-09-23T01:23:40.924Z,8.5
2022-09-23T01:24:41.056Z,8.5
2022-09-23T01:25:41.177Z,8.5
2022-09-23T01:26:41.306Z,8.39
2022-09-23T01:27:41.435Z,8.39
2022-09-23T01:28:41.577Z,8.39
2022-09-23T01:29:41.702Z,8.39
2022-09-23T01:30:41.987Z,8.39
2022-09-23T01:31:42.184Z,8.39
2022-09-23T01:32:42.301Z,8.39
2022-09-23T01:33:42.435Z,8.39
2022-09-23T01:34:42.561Z,8.39
2022-09-23T01:35:42.691Z,8.39
2022-09-23T01:36:42.812Z,8.39
2022-09-23T01:37:42.932Z,8.39
2022-09-23T01:38:43.055Z,8.39
2022-09-23T01:39:43.183Z,8.39
2022-09-23T01:40:43.410Z,8.39
2022-09-23T01:41:43.640Z,8.39
2022-09-23T01:42:43.762Z,8.39
2022-09-23T01:43:43.886Z,8.39
2022-09-23T01:44:44.014Z,8.39
2022-09-23T01:45:44.142Z,8.39
2022-09-23T01:46:44.267Z,8.3
2022-09-23T01:47:44.391Z,8.3
2022-09-23T01:48:44.699Z,8.3
2022-09-23T01:49:44.953Z,8.3
2022-09-23T01:50:45.085Z,8.3
2022-09-23T01:51:45.221Z,8.3
2022-09-23T01:52:45.351Z,8.3
2022-09-23T01:53:45.473Z,8.3
2022-09-23T01:54:45.591Z,8.3
2022-09-23T01:55:45.710Z,8.3
2022-09-23T01:56:45.834Z,8.2
2022-09-23T01:57:45.959Z,8.2
2022-09-23T01:58:46.085Z,8.2
2022-09-23T01:59:46.211Z,8.2
2022-09-23T02:00:46.331Z,8.2
2022-09-23T02:01:46.576Z,8.2
2022-09-23T02:02:46.986Z,8.2
2022-09-23T02:03:47.223Z,8.2
2022-09-23T02:04:47.350Z,8.2
2022-09-23T02:05:47.521Z,8.2
2022-09-23T02:06:47.696Z,8.2
2022-09-23T02:07:47.843Z,8.2
2022-09-23T02:08:47.967Z,8.2
2022-09-23T02:09:48.090Z,8.2
2022-09-23T02:10:48.219Z,8.2
2022-09-23T02:11:48.354Z,8.2
2022-09-23T02:12:48.485Z,8.2
2022-09-23T02:13:48.617Z,8.2
2022-09-23T02:14:48.741Z,8.2
2022-09-23T02:15:48.923Z,8.2
2022-09-23T02:16:49.191Z,8.1
2022-09-23T02:17:49.497Z,8.1
2022-09-23T02:18:49.628Z,8.1
2022-09-23T02:19:49.755Z,8.1
2022-09-23T02:20:49.875Z,8.1
2022-09-23T02:21:50.007Z,8.1
2022-09-23T02:22:50.133Z,8.1
2022-09-23T02:23:50.256Z,8.1
2022-09-23T02:24:50.389Z,8.1
2022-09-23T02:25:50.521Z,8.1
2022-09-23T02:26:50.649Z,8
2022-09-23T02:27:50.781Z,8
2022-09-23T02:28:50.903Z,8
2022-09-23T02:29:51.032Z,8
2022-09-23T02:30:51.159Z,8
2022-09-23T02:31:51.384Z,8
2022-09-23T02:32:51.540Z,8
2022-09-23T02:33:51.666Z,8
2022-09-23T02:34:51.793Z,8
2022-09-23T02:35:51.920Z,8
2022-09-23T02:36:52.045Z,7.9
2022-09-23T02:37:52.178Z,7.9
2022-09-23T02:38:52.320Z,7.9
2022-09-23T02:39:52.478Z,7.9
2022-09-23T02:40:52.872Z,7.9
2022-09-23T02:41:53.140Z,7.9
2022-09-23T02:42:53.266Z,7.9
2022-09-23T02:43:53.396Z,7.9
2022-09-23T02:44:53.521Z,7.9
2022-09-23T02:45:53.811Z,7.9
2022-09-23T02:46:54.019Z,7.9
2022-09-23T02:47:54.146Z,7.9
2022-09-23T02:48:54.273Z,7.9
2022-09-23T02:49:54.399Z,7.9
2022-09-23T02:50:54.524Z,7.9
2022-09-23T02:51:54.666Z,7.9
2022-09-23T02:52:54.796Z,7.9
2022-09-23T02:53:54.918Z,7.9
2022-09-23T02:54:55.049Z,7.9
2022-09-23T02:55:55.169Z,7.8
2022-09-23T02:56:55.300Z,7.8
2022-09-23T02:57:55.449Z,7.8
2022-09-23T02:58:55.576Z,7.8
2022-09-23T02:59:55.707Z,7.8
2022-09-23T03:00:55.902Z,7.8
2022-09-23T03:01:56.264Z,7.8
2022-09-23T03:02:56.522Z,7.8
2022-09-23T03:03:56.646Z,7.8
2022-09-23T03:04:56.771Z,7.8
2022-09-23T03:05:56.894Z,7.7
2022-09-23T03:06:57.028Z,7.7
2022-09-23T03:07:57.155Z,7.7
2022-09-23T03:08:57.291Z,7.7
2022-09-23T03:09:57.426Z,7.7
2022-09-23T03:10:57.556Z,7.7
2022-09-23T03:11:57.684Z,7.7
2022-09-23T03:12:57.812Z,7.7
2022-09-23T03:13:57.938Z,7.7
2022-09-23T03:14:58.068Z,7.7
2022-09-23T03:15:58.193Z,7.7
2022-09-23T03:16:58.341Z,7.7
2022-09-23T03:17:58.471Z,7.7
2022-09-23T03:18:58.601Z,7.7
2022-09-23T03:19:58.738Z,7.7
2022-09-23T03:20:58.871Z,7.7
2022-09-23T03:21:59.007Z,7.7
2022-09-23T03:22:59.145Z,7.7
2022-09-23T03:23:59.354Z,7.7
2022-09-23T03:24:59.625Z,7.7
2022-09-23T03:25:59.747Z,7.6
2022-09-23T03:26:59.877Z,7.6
2022-09-23T03:28:00.002Z,7.6
2022-09-23T03:29:00.130Z,7.6
2022-09-23T03:30:00.257Z,7.6
2022-09-23T03:31:00.393Z,7.6
2022-09-23T03:32:00.633Z,7.6
2022-09-23T03:33:00.872Z,7.6
2022-09-23T03:34:01.005Z,7.6
2022-09-23T03:35:01.132Z,7.6
2022-09-23T03:36:01.252Z,7.6
2022-09-23T03:37:01.397Z,7.6
2022-09-23T03:38:01.544Z,7.6
2022-09-23T03:39:01.883Z,7.6
2022-09-23T03:40:02.176Z,7.6
2022-09-23T03:41:02.299Z,7.6
2022-09-23T03:42:02.423Z,7.6
2022-09-23T03:43:02.547Z,7.6
2022-09-23T03:44:02.679Z,7.6
2022-09-23T03:45:02.805Z,7.6
2022-09-23T03:46:03.102Z,7.5
2022-09-23T03:47:03.368Z,7.5
2022-09-23T03:48:03.494Z,7.5
2022-09-23T03:49:03.617Z,7.5
2022-09-23T03:50:03.740Z,7.5
2022-09-23T03:51:03.872Z,7.5
2022-09-23T03:52:04.009Z,7.5
2022-09-23T03:53:04.144Z,7.5
2022-09-23T03:54:04.269Z,7.5
2022-09-23T03:55:04.406Z,7.5
2022-09-23T03:56:04.532Z,7.4
2022-09-23T03:57:04.669Z,7.4
2022-09-23T03:58:04.832Z,7.4
2022-09-23T03:59:04.962Z,7.4
2022-09-23T04:00:05.085Z,7.4
2022-09-23T04:01:05.387Z,7.4
2022-09-23T04:02:05.746Z,7.4
2022-09-23T04:03:11.830Z,7.4
2022-09-23T04:04:12.254Z,7.4
2022-09-23T04:05:12.375Z,7.4
2022-09-23T04:06:12.497Z,7.4
2022-09-23T04:07:12.626Z,7.4
2022-09-23T04:08:12.756Z,7.4
2022-09-23T04:09:12.882Z,7.4
2022-09-23T04:10:13.028Z,7.4
2022-09-23T04:11:13.156Z,7.4
2022-09-23T04:12:13.285Z,7.4
2022-09-23T04:13:13.414Z,7.4
2022-09-23T04:14:13.535Z,7.4
2022-09-23T04:15:13.656Z,7.4
2022-09-23T04:16:13.820Z,7.3
2022-09-23T04:17:13.997Z,7.3
2022-09-23T04:18:14.120Z,7.3
2022-09-23T04:19:14.243Z,7.3
2022-09-23T04:20:14.373Z,7.3
2022-09-23T04:21:14.506Z,7.3
2022-09-23T04:22:14.634Z,7.3
2022-09-23T04:23:14.767Z,7.3
2022-09-23T04:24:14.910Z,7.3
2022-09-23T04:25:15.041Z,7.3
2022-09-23T04:26:15.174Z,7.3
2022-09-23T04:27:15.302Z,7.3
2022-09-23T04:28:15.423Z,7.3
2022-09-23T04:29:15.569Z,7.3
2022-09-23T04:30:15.699Z,7.3
2022-09-23T04:31:15.949Z,7.3
2022-09-23T04:32:16.207Z,7.3
2022-09-23T04:33:16.342Z,7.3
2022-09-23T04:34:16.471Z,7.3
2022-09-23T04:35:16.603Z,7.3
2022-09-23T04:36:16.736Z,7.3
2022-09-23T04:37:16.861Z,7.3
2022-09-23T04:38:16.988Z,7.3
2022-09-23T04:39:17.114Z,7.3
2022-09-23T04:40:17.443Z,7.3
2022-09-23T04:41:17.690Z,7.3
2022-09-23T04:42:17.814Z,7.3
2022-09-23T04:43:17.931Z,7.3
2022-09-23T04:44:18.054Z,7.3
2022-09-23T04:45:18.192Z,7.3
2022-09-23T04:46:18.398Z,7.2
2022-09-23T04:47:18.613Z,7.2
2022-09-23T04:48:18.742Z,7.2
2022-09-23T04:49:18.872Z,7.2
2022-09-23T04:50:18.997Z,7.2
2022-09-23T04:51:19.136Z,7.2
2022-09-23T04:52:19.264Z,7.2
2022-09-23T04:53:19.395Z,7.2
2022-09-23T04:54:19.519Z,7.2
2022-09-23T04:55:19.646Z,7.2
2022-09-23T04:56:19.767Z,7.2
2022-09-23T04:57:19.913Z,7.2
2022-09-23T04:58:20.040Z,7.2
2022-09-23T04:59:20.181Z,7.2
2022-09-23T05:00:20.320Z,7.2
2022-09-23T05:01:20.598Z,7.2
2022-09-23T05:02:20.966Z,7.2
2022-09-23T05:03:21.214Z,7.2
2022-09-23T05:04:21.336Z,7.2
2022-09-23T05:05:21.460Z,7.2
2022-09-23T05:06:21.584Z,7.2
2022-09-23T05:07:21.711Z,7.2
2022-09-23T05:08:21.837Z,7.2
2022-09-23T05:09:21.961Z,7.2
2022-09-23T05:10:22.084Z,7.2
2022-09-23T05:11:22.211Z,7.2
2022-09-23T05:12:22.337Z,7.2
2022-09-23T05:13:22.481Z,7.2
2022-09-23T05:14:22.604Z,7.2
2022-09-23T05:15:22.734Z,7.2
2022-09-23T05:16:23.015Z,7.2
2022-09-23T05:17:23.309Z,7.2
2022-09-23T05:18:23.433Z,7.2
2022-09-23T05:19:23.565Z,7.2
2022-09-23T05:20:23.686Z,7.2
2022-09-23T05:21:23.828Z,7.2
2022-09-23T05:22:23.955Z,7.2
2022-09-23T05:23:24.082Z,7.2
2022-09-23T05:24:24.215Z,7.2
2022-09-23T05:25:24.345Z,7.2
2022-09-23T05:26:24.471Z,7.1
2022-09-23T05:27:24.611Z,7.1
2022-09-23T05:28:24.740Z,7.1
2022-09-23T05:29:24.873Z,7.1
2022-09-23T05:30:25.007Z,7.1
2022-09-23T05:31:25.231Z,7.1
2022-09-23T05:32:25.430Z,7.1
2022-09-23T05:33:25.555Z,7.1
2022-09-23T05:34:25.679Z,7.1
2022-09-23T05:35:25.814Z,7.1
2022-09-23T05:36:25.942Z,7.1
2022-09-23T05:37:26.071Z,7.1
2022-09-23T05:38:26.197Z,7.1
2022-09-23T05:39:26.326Z,7.1
2022-09-23T05:40:26.582Z,7.1
2022-09-23T05:41:26.832Z,7.1
2022-09-23T05:42:26.957Z,7.1
2022-09-23T05:43:27.101Z,7.1
2022-09-23T05:44:27.223Z,7.1
2022-09-23T05:45:27.351Z,7.1
2022-09-23T05:46:27.606Z,7.2
2022-09-23T05:47:27.874Z,7.2
2022-09-23T05:48:27.994Z,7.2
2022-09-23T05:49:59.433Z,7.2
2022-09-23T05:51:00.929Z,7.2
2022-09-23T05:52:01.049Z,7.2
2022-09-23T05:53:01.192Z,7.2
2022-09-23T05:54:01.315Z,7.2
2022-09-23T05:55:01.441Z,7.2
2022-09-23T05:56:01.794Z,7.2
2022-09-23T05:57:05.204Z,7.2
2022-09-23T05:58:05.382Z,7.2
2022-09-23T05:59:05.721Z,7.2
2022-09-23T06:00:06.058Z,7.2
2022-09-23T06:01:06.190Z,7.2
2022-09-23T06:02:06.636Z,7.2
2022-09-23T06:03:07.267Z,7.2
2022-09-23T06:04:07.977Z,7.2
2022-09-23T06:05:08.394Z,7.2
2022-09-23T06:06:08.524Z,7.3
2022-09-23T06:07:08.659Z,7.3
2022-09-23T06:08:08.788Z,7.3
2022-09-23T06:09:08.920Z,7.3
2022-09-23T06:10:09.043Z,7.3
2022-09-23T06:11:09.170Z,7.3
2022-09-23T06:12:09.297Z,7.3
2022-09-23T06:13:09.424Z,7.3
2022-09-23T06:14:09.551Z,7.3
2022-09-23T06:15:09.676Z,7.3
2022-09-23T06:16:09.925Z,7.4
2022-09-23T06:17:10.166Z,7.4
2022-09-23T06:18:10.295Z,7.4
2022-09-23T06:19:10.419Z,7.4
2022-09-23T06:20:10.554Z,7.4
2022-09-23T06:21:10.692Z,7.4
2022-09-23T06:22:10.825Z,7.4
2022-09-23T06:23:10.989Z,7.4
2022-09-23T06:24:18.986Z,7.4
2022-09-23T06:25:24.871Z,7.5
2022-09-23T06:26:25.000Z,7.5
2022-09-23T06:27:25.127Z,7.5
2022-09-23T06:28:25.254Z,7.5
2022-09-23T06:29:25.378Z,7.5
2022-09-23T06:30:25.512Z,7.5
2022-09-23T06:31:25.731Z,7.5
2022-09-23T06:32:26.020Z,7.5
2022-09-23T06:33:37.318Z,7.5
2022-09-23T06:34:52.031Z,7.7
2022-09-23T06:36:00.015Z,7.8
2022-09-23T06:37:16.991Z,7.8
2022-09-23T06:38:20.793Z,7.8
2022-09-23T06:39:20.930Z,7.8
2022-09-23T06:40:21.183Z,7.8
2022-09-23T06:41:21.415Z,7.8
2022-09-23T06:42:21.541Z,7.8
2022-09-23T06:43:21.671Z,7.8
2022-09-23T06:44:21.801Z,7.8
2022-09-23T06:45:21.930Z,7.8
2022-09-23T06:46:22.186Z,8.2
2022-09-23T06:47:22.346Z,8.2
2022-09-23T06:48:22.475Z,8.2
2022-09-23T06:49:22.608Z,8.2
2022-09-23T06:50:22.740Z,8.2
2022-09-23T06:51:22.877Z,8.2
2022-09-23T06:52:23.002Z,8.2
2022-09-23T06:53:23.127Z,8.2
2022-09-23T06:54:23.251Z,8.2
2022-09-23T06:55:23.383Z,8.2
2022-09-23T06:56:23.508Z,8.7
2022-09-23T06:57:23.646Z,8.7
2022-09-23T06:58:23.775Z,8.7
2022-09-23T06:59:23.906Z,8.7
2022-09-23T07:00:24.047Z,8.7
2022-09-23T07:01:24.322Z,8.7
2022-09-23T07:02:24.870Z,8.7
2022-09-23T07:03:25.201Z,8.7
2022-09-23T07:04:29.551Z,8.7
2022-09-23T07:05:29.687Z,9.2
2022-09-23T07:06:29.812Z,9.2
2022-09-23T07:07:29.937Z,9.2
2022-09-23T07:08:30.064Z,9.2
2022-09-23T07:09:30.217Z,9.2
2022-09-23T07:10:30.350Z,9.2
2022-09-23T07:11:30.485Z,9.2
2022-09-23T07:12:30.622Z,9.2
2022-09-23T07:13:30.751Z,9.2
2022-09-23T07:14:30.877Z,9.2
2022-09-23T07:15:31.029Z,9.2
2022-09-23T07:16:31.472Z,9.7
2022-09-23T07:17:31.760Z,9.7
2022-09-23T07:18:37.152Z,9.7
2022-09-23T07:19:37.847Z,9.8
2022-09-23T07:20:37.973Z,9.8
2022-09-23T07:21:38.095Z,9.8
2022-09-23T07:22:38.220Z,9.8
2022-09-23T07:23:38.341Z,9.8
2022-09-23T07:24:38.467Z,9.8
2022-09-23T07:25:38.594Z,9.8
2022-09-23T07:26:45.751Z,10.1
2022-09-23T07:27:46.008Z,10.2
2022-09-23T07:28:46.134Z,10.2
2022-09-23T07:29:49.110Z,10.2
2022-09-23T07:31:00.796Z,10.2
2022-09-23T07:32:14.326Z,10.4
2022-09-23T07:33:32.380Z,10.5
2022-09-23T07:34:33.693Z,10.5
2022-09-23T07:35:33.827Z,10.5
2022-09-23T07:36:33.961Z,10.7
2022-09-23T07:37:34.088Z,10.7
2022-09-23T07:38:34.212Z,10.7
2022-09-23T07:39:34.341Z,10.7
2022-09-23T07:40:34.558Z,10.7
2022-09-23T07:41:34.788Z,10.7
2022-09-23T07:42:34.916Z,10.7
2022-09-23T07:43:35.045Z,10.7
2022-09-23T07:44:35.173Z,10.7
2022-09-23T07:45:35.298Z,10.7
2022-09-23T07:46:35.508Z,11.2
2022-09-23T07:47:35.797Z,11.2
2022-09-23T07:48:35.927Z,11.2
2022-09-23T07:49:36.051Z,11.2
2022-09-23T07:50:36.171Z,11.2
2022-09-23T07:51:37.179Z,11.2
2022-09-23T07:52:37.310Z,11.2
2022-09-23T07:53:37.431Z,11.2
2022-09-23T07:54:37.588Z,11.2
2022-09-23T07:55:37.705Z,11.2
2022-09-23T07:56:37.831Z,11.7
2022-09-23T07:57:37.963Z,11.7
2022-09-23T07:58:38.101Z,11.7
2022-09-23T07:59:38.229Z,11.7
2022-09-23T08:00:38.357Z,11.7
2022-09-23T08:01:38.672Z,11.7
2022-09-23T08:02:39.060Z,11.7
2022-09-23T08:03:39.268Z,11.7
2022-09-23T08:04:39.399Z,11.7
2022-09-23T08:05:39.527Z,11.7
2022-09-23T08:06:39.652Z,12.1
2022-09-23T08:07:39.776Z,12.1
2022-09-23T08:08:39.911Z,12.1
2022-09-23T08:09:40.036Z,12.1
2022-09-23T08:10:40.168Z,12.1
2022-09-23T08:11:40.294Z,12.1
2022-09-23T08:12:40.423Z,12.1
2022-09-23T08:13:40.545Z,12.1
2022-09-23T08:14:40.682Z,12.1
2022-09-23T08:15:40.884Z,12.1
2022-09-23T08:16:41.111Z,12.6
2022-09-23T08:17:41.249Z,12.6
2022-09-23T08:18:41.376Z,12.6
2022-09-23T08:19:41.502Z,12.6
2022-09-23T08:20:46.547Z,12.6
2022-09-23T08:21:48.344Z,12.8
2022-09-23T08:22:48.468Z,12.8
2022-09-23T08:23:48.622Z,12.8
2022-09-23T08:24:48.757Z,12.8
2022-09-23T08:25:48.879Z,12.8
2022-09-23T08:26:49.010Z,13.1
2022-09-23T08:27:49.139Z,13.1
2022-09-23T08:28:49.270Z,13.1
2022-09-23T08:29:49.395Z,13.1
2022-09-23T08:30:49.803Z,13.1
2022-09-23T08:31:49.995Z,13.1
2022-09-23T08:32:50.115Z,13.1
2022-09-23T08:33:50.241Z,13.1
2022-09-23T08:34:50.375Z,13.1
2022-09-23T08:35:50.500Z,13.8
2022-09-23T08:36:50.633Z,13.8
2022-09-23T08:37:50.760Z,13.8
2022-09-23T08:38:50.882Z,13.8
2022-09-23T08:39:51.019Z,13.8
2022-09-23T08:40:51.142Z,13.8
2022-09-23T08:41:58.710Z,13.8
2022-09-23T08:42:59.484Z,14.2
2022-09-23T08:43:59.783Z,14.2
2022-09-23T08:45:00.033Z,14.2
2022-09-23T08:46:00.353Z,14.5
2022-09-23T08:47:00.560Z,14.5
2022-09-23T08:48:00.717Z,14.5
2022-09-23T08:49:01.042Z,14.5
2022-09-23T08:50:01.183Z,14.5
2022-09-23T08:51:01.307Z,14.5
2022-09-23T08:52:01.433Z,14.5
2022-09-23T08:53:01.554Z,14.5
2022-09-23T08:54:01.895Z,14.5
2022-09-23T08:55:02.073Z,14.5
2022-09-23T08:56:02.231Z,15.3
2022-09-23T08:57:02.363Z,15.3
2022-09-23T08:58:25.811Z,15.3
2022-09-23T08:59:26.903Z,15.6
2022-09-23T09:00:27.033Z,15.6
2022-09-23T09:01:27.289Z,15.6
2022-09-23T09:02:27.681Z,15.6
2022-09-23T09:03:27.894Z,15.6
2022-09-23T09:04:28.030Z,15.6
2022-09-23T09:05:28.154Z,15.6
2022-09-23T09:06:28.276Z,16.2
2022-09-23T09:07:38.180Z,16.2
2022-09-23T09:08:38.783Z,16.4
2022-09-23T09:09:38.919Z,16.4
2022-09-23T09:10:39.045Z,16.4
2022-09-23T09:11:39.174Z,16.4
2022-09-23T09:12:39.302Z,16.4
2022-09-23T09:13:39.427Z,16.4
2022-09-23T09:14:39.559Z,16.4
2022-09-23T09:15:39.774Z,16.4
2022-09-23T09:17:00.546Z,16.9
2022-09-23T09:18:01.707Z,17
2022-09-23T09:19:01.830Z,17
2022-09-23T09:20:02.071Z,17
2022-09-23T09:21:02.199Z,17
2022-09-23T09:22:02.323Z,17
2022-09-23T09:23:02.447Z,17
2022-09-23T09:24:02.786Z,17
2022-09-23T09:25:03.056Z,17
2022-09-23T09:26:03.190Z,17.6
2022-09-23T09:27:03.321Z,17.6
2022-09-23T09:28:03.562Z,17.6
2022-09-23T09:29:35.198Z,17.6
2022-09-23T09:30:36.697Z,17.9
2022-09-23T09:31:37.052Z,17.9
2022-09-23T09:32:37.266Z,17.9
2022-09-23T09:33:37.389Z,17.9
2022-09-23T09:34:37.516Z,17.9
2022-09-23T09:35:37.658Z,17.9
2022-09-23T09:36:37.797Z,18.4
2022-09-23T09:37:37.923Z,18.4
2022-09-23T09:38:38.051Z,18.4
2022-09-23T09:39:38.191Z,18.4
2022-09-23T09:40:38.442Z,18.4
2022-09-23T09:41:38.686Z,18.4
2022-09-23T09:42:38.807Z,18.4
2022-09-23T09:43:44.328Z,18.4
2022-09-23T09:44:44.537Z,19.4
2022-09-23T09:45:44.663Z,19.4
2022-09-23T09:46:44.885Z,19.4
2022-09-23T09:47:45.289Z,19.4
2022-09-23T09:48:45.413Z,19.4
2022-09-23T09:49:45.537Z,19.4
2022-09-23T09:50:45.663Z,19.4
2022-09-23T09:51:45.782Z,19.4
2022-09-23T09:52:45.847Z,19.4
2022-09-23T09:53:45.978Z,20.4
2022-09-23T09:54:46.108Z,20.4
2022-09-23T09:55:46.239Z,20.4
2022-09-23T09:56:52.516Z,20.4
2022-09-23T09:57:52.712Z,20.8
2022-09-23T09:58:52.840Z,20.8
2022-09-23T09:59:52.966Z,20.8
2022-09-23T10:00:53.093Z,20.8
2022-09-23T10:01:53.324Z,20.8
2022-09-23T10:02:53.460Z,21.4
2022-09-23T10:03:59.457Z,21.4
2022-09-23T10:04:59.840Z,21.5
2022-09-23T10:05:59.969Z,21.5
2022-09-23T10:07:00.109Z,21.5
2022-09-23T10:08:00.234Z,21.5
2022-09-23T10:09:00.541Z,21.5
2022-09-23T10:10:22.405Z,21.5
2022-09-23T10:11:33.233Z,21.9
2022-09-23T10:12:33.356Z,22
2022-09-23T10:13:33.477Z,22
2022-09-23T10:14:33.599Z,22
2022-09-23T10:15:33.724Z,22
2022-09-23T10:16:33.953Z,22
2022-09-23T10:17:34.222Z,22
2022-09-23T10:18:34.355Z,22
2022-09-23T10:19:34.481Z,22
2022-09-23T10:20:34.604Z,22
2022-09-23T10:21:34.735Z,22
2022-09-23T10:22:34.862Z,22.2
2022-09-23T10:23:34.995Z,22.2
2022-09-23T10:24:35.117Z,22.2
2022-09-23T10:25:35.247Z,22.2
2022-09-23T10:26:35.379Z,22.2
2022-09-23T10:27:35.511Z,22.2
2022-09-23T10:28:35.642Z,22.2
2022-09-23T10:29:35.802Z,22.2
2022-09-23T10:30:36.097Z,22.2
2022-09-23T10:31:36.323Z,22.2
2022-09-23T10:32:36.450Z,22.6
2022-09-23T10:33:36.581Z,22.6
2022-09-23T10:34:36.713Z,22.6
2022-09-23T10:35:36.839Z,22.6
2022-09-23T10:36:44.365Z,22.6
2022-09-23T10:37:44.789Z,22.8
2022-09-23T10:38:44.916Z,22.8
2022-09-23T10:39:45.045Z,22.8
2022-09-23T10:40:45.490Z,22.8
2022-09-23T10:41:45.923Z,22.8
2022-09-23T10:42:46.052Z,23
2022-09-23T10:43:46.174Z,23
2022-09-23T10:44:46.301Z,23
2022-09-23T10:45:46.522Z,23
2022-09-23T10:46:46.745Z,23
2022-09-23T10:47:46.871Z,23
2022-09-23T10:48:47.001Z,23
2022-09-23T10:49:47.128Z,23
2022-09-23T10:50:47.253Z,23
2022-09-23T10:51:47.379Z,23
2022-09-23T10:52:47.500Z,23.4
2022-09-23T10:53:47.628Z,23.4
2022-09-23T10:54:47.759Z,23.4
2022-09-23T10:55:47.923Z,23.4
2022-09-23T10:56:48.052Z,23.4
2022-09-23T10:57:48.181Z,23.4
2022-09-23T10:58:48.310Z,23.4
2022-09-23T10:59:48.440Z,23.4
2022-09-23T11:00:48.580Z,23.4
2022-09-23T11:01:48.823Z,23.4
2022-09-23T11:02:49.110Z,23.5
2022-09-23T11:03:49.236Z,23.5
2022-09-23T11:04:49.570Z,23.5
2022-09-23T11:05:49.901Z,23.5
2022-09-23T11:06:50.021Z,23.5
2022-09-23T11:07:50.150Z,23.5
2022-09-23T11:08:50.264Z,23.5
2022-09-23T11:09:50.388Z,23.5
2022-09-23T11:10:50.534Z,23.5
2022-09-23T11:11:50.659Z,23.5
2022-09-23T11:12:50.790Z,23.7
2022-09-23T11:13:54.855Z,23.7
2022-09-23T11:14:55.150Z,23.7
2022-09-23T11:15:55.283Z,23.7
2022-09-23T11:16:55.522Z,23.7
2022-09-23T11:17:55.783Z,23.7
2022-09-23T11:18:55.901Z,23.7
2022-09-23T11:19:56.032Z,23.7
2022-09-23T11:20:56.162Z,23.7
2022-09-23T11:21:56.292Z,23.7
2022-09-23T11:22:56.426Z,23.6
2022-09-23T11:23:56.566Z,23.6
2022-09-23T11:24:56.691Z,23.6
2022-09-23T11:25:56.861Z,23.6
2022-09-23T11:26:57.056Z,23.6
2022-09-23T11:27:57.196Z,23.6
2022-09-23T11:28:57.322Z,23.6
2022-09-23T11:29:57.452Z,23.6
2022-09-23T11:30:57.671Z,23.6
2022-09-23T11:31:59.953Z,23.6
2022-09-23T11:33:00.294Z,23.2
2022-09-23T11:34:00.776Z,23.2
2022-09-23T11:35:01.046Z,23.2
2022-09-23T11:36:01.187Z,23.2
2022-09-23T11:37:01.315Z,23.2
2022-09-23T11:38:01.437Z,23.2
2022-09-23T11:39:01.568Z,23.2
2022-09-23T11:40:01.706Z,23.2
2022-09-23T11:41:02.000Z,23.2
2022-09-23T11:42:02.255Z,23.2
2022-09-23T11:43:02.386Z,22.7
2022-09-23T11:44:02.590Z,22.7
2022-09-23T11:45:02.777Z,22.7
2022-09-23T11:46:03.080Z,22.7
2022-09-23T11:47:03.390Z,22.7
2022-09-23T11:48:03.516Z,22.7
2022-09-23T11:49:03.641Z,22.7
2022-09-23T11:50:03.761Z,22.7
2022-09-23T11:51:03.880Z,22.7
2022-09-23T11:52:04.013Z,22.7
2022-09-23T11:53:04.143Z,22.9
2022-09-23T11:54:04.265Z,22.9
2022-09-23T11:55:21.815Z,22.9
2022-09-23T11:56:36.076Z,23.2
2022-09-23T11:57:49.442Z,23.3
2022-09-23T11:58:58.898Z,23.4
2022-09-23T12:00:00.365Z,23.5
2022-09-23T12:01:01.682Z,23.5
2022-09-23T12:02:19.836Z,23.5
2022-09-23T12:03:41.083Z,23.8
2022-09-23T12:04:58.447Z,23.9
2022-09-23T12:05:59.402Z,24
2022-09-23T12:06:59.725Z,24
2022-09-23T12:07:59.857Z,24
2022-09-23T12:08:59.995Z,24
2022-09-23T12:10:00.182Z,24
2022-09-23T12:11:00.314Z,24
2022-09-23T12:12:00.438Z,24
2022-09-23T12:13:00.568Z,24.5
2022-09-23T12:14:00.962Z,24.5
2022-09-23T12:15:01.084Z,24.5
2022-09-23T12:16:01.204Z,24.5
2022-09-23T12:17:01.496Z,24.5
2022-09-23T12:18:01.771Z,24.5
2022-09-23T12:19:01.895Z,24.5
2022-09-23T12:20:02.019Z,24.5
2022-09-23T12:21:02.146Z,24.5
2022-09-23T12:22:02.277Z,24.5
2022-09-23T12:23:02.399Z,25.1
2022-09-23T12:24:02.687Z,25.1
2022-09-23T12:25:03.002Z,25.1
2022-09-23T12:26:03.122Z,25.1
2022-09-23T12:27:03.249Z,25.1
2022-09-23T12:28:03.374Z,25.1
2022-09-23T12:29:03.495Z,25.1
2022-09-23T12:30:03.621Z,25.1
2022-09-23T12:31:03.864Z,25.1
2022-09-23T12:32:04.080Z,25.1
2022-09-23T12:33:04.208Z,25.6
2022-09-23T12:34:04.331Z,25.6
2022-09-23T12:35:04.467Z,25.6
2022-09-23T12:36:04.615Z,25.6
2022-09-23T12:37:04.745Z,25.6
2022-09-23T12:38:04.884Z,25.6
2022-09-23T12:39:05.011Z,25.6
2022-09-23T12:40:05.238Z,25.6
2022-09-23T12:41:05.443Z,25.6
2022-09-23T12:42:05.570Z,25.6
2022-09-23T12:43:05.694Z,25.3
2022-09-23T12:44:05.922Z,25.3
2022-09-23T12:45:06.128Z,25.3
2022-09-23T12:46:06.365Z,25.3
2022-09-23T12:47:06.566Z,25.3
2022-09-23T12:48:06.686Z,25.3
2022-09-23T12:49:06.810Z,25.3
2022-09-23T12:50:06.935Z,25.3
2022-09-23T12:51:07.059Z,25.3
2022-09-23T12:52:07.183Z,25.3
2022-09-23T12:53:07.304Z,24.9
2022-09-23T12:54:07.658Z,24.9
2022-09-23T12:55:07.859Z,24.9
2022-09-23T12:56:07.986Z,24.9
2022-09-23T12:57:08.168Z,24.9
2022-09-23T12:58:08.291Z,24.9
2022-09-23T12:59:08.417Z,24.9
2022-09-23T13:00:08.581Z,24.9
2022-09-23T13:01:09.169Z,24.9
2022-09-23T13:02:09.798Z,24.9
2022-09-23T13:03:10.273Z,24.8
2022-09-23T13:04:10.616Z,24.8
2022-09-23T13:05:10.943Z,24.8
2022-09-23T13:06:11.071Z,24.8
2022-09-23T13:07:11.195Z,24.8
2022-09-23T13:08:11.324Z,24.8
2022-09-23T13:09:11.446Z,24.8
2022-09-23T13:10:11.565Z,24.8
2022-09-23T13:11:11.687Z,24.8
2022-09-23T13:12:11.810Z,24.8
2022-09-23T13:13:11.929Z,24.7
2022-09-23T13:14:12.056Z,24.7
2022-09-23T13:15:12.181Z,24.7
2022-09-23T13:16:12.404Z,24.7
2022-09-23T13:17:12.601Z,24.7
2022-09-23T13:18:12.722Z,24.7
2022-09-23T13:19:12.844Z,24.7
2022-09-23T13:20:12.969Z,24.7
2022-09-23T13:21:13.092Z,24.7
2022-09-23T13:22:13.217Z,24.7
2022-09-23T13:23:13.431Z,25.2
2022-09-23T13:24:13.628Z,25.2
2022-09-23T13:25:13.815Z,25.2
2022-09-23T13:26:13.946Z,25.2
2022-09-23T13:27:14.066Z,25.2
2022-09-23T13:28:14.191Z,25.2
2022-09-23T13:29:14.318Z,25.2
2022-09-23T13:30:14.446Z,25.2
2022-09-23T13:31:14.611Z,25.2
2022-09-23T13:32:14.998Z,25.2
2022-09-23T13:33:15.357Z,25.5
2022-09-23T13:34:15.478Z,25.5
2022-09-23T13:35:15.603Z,25.5
2022-09-23T13:36:15.737Z,25.5
2022-09-23T13:37:22.597Z,25.5
2022-09-23T13:38:23.300Z,25.6
2022-09-23T13:39:23.482Z,25.6
2022-09-23T13:40:24.088Z,25.6
2022-09-23T13:41:24.387Z,25.6
2022-09-23T13:42:24.523Z,25.6
2022-09-23T13:43:24.646Z,25.6
2022-09-23T13:44:24.779Z,25.6
2022-09-23T13:45:24.962Z,25.6